Williston, VT

3:12 PM EST on December 18, 2014 (GMT -0500)
Knapp State | Change Station
CLOSE
Current Station
Airport
Location: Montpelier,
Elevation: 1165 ft
Nearby Weather Stations

Elev 1165 ft 44.20 °N, 72.56 °W | Updated 5 minutes ago

Overcast
Overcast
29 °F
Feels Like 18 °F
N
14
Wind Variable Wind from NW
Gusts 24 mph

Today
High -- | Low -- °F
--% Chance of Precip.
Yesterday
High -- | Low -- °F
Precip. -- in
7:23 AM 4:14 PM
Waning Crescent, 12% visible
Pressure 29.83 in
Visibility 2.5 miles
Clouds Overcast 1400 ft
Windchill 18 °F
Dew Point 26 °F
Humidity 89%
Rainfall 0.00 in
Snow Depth Not available.
UV 0 out of 12
Pollen .10 out of 12
Air Quality Not available.
Flu Activity Not available.
SPECI KMPV 182007Z AUTO 32012G21KT 2 1/2SM -SN BR OVC014 M02/M03 A2983 RMK AO2 VIS 1 3/4V3 P0000 T10171033

More Conditions Fewer Conditions

Pressure 29.83 in
Visibility 2.5 miles
Clouds Overcast 1400 ft
Windchill 18 °F
Dew Point 26 °F
Humidity 89%
Rainfall 0.00 in
Snow Depth Not available.
UV 0 out of 12
Pollen .10 out of 12
Air Quality Not available.
Flu Activity Not available.
SPECI KMPV 182007Z AUTO 32012G21KT 2 1/2SM -SN BR OVC014 M02/M03 A2983 RMK AO2 VIS 1 3/4V3 P0000 T10171033

More Conditions Fewer Conditions

10-Day Weather Forecast

Almanac

Astronomy

Dec. 18, 2014 Rise Set
Actual Time
Civil Twilight
Nautical Twilight
Astronomical Twilight
Moon
Length of Visible Light
Length of Day
Tomorrow will be .
, % of the Moon is Illuminated

Today's Extremes

State Highs State Lows

Community

WunderPhotos

Upload Photos

1,778,992 photos uploaded!

WunderBlogs® & News

Nearby

Air Quality

  Air Quality AQ Index Pollutant
Not available.

Snow Depth

Station Depth Elevation

Earthquake Activity

City Distance Mag. Time & Date
Minimum magnitude displayed is 2.5.

Coastal Water Temperatures

Place Temperature

Nearby Weather Stations